Time;durP1;ratioP1;P1;durP2;ratioP2;P2;SDS_P1;SDS_P2;PMS_P1;PMS_P2;Temp;Humidity;BMP_temperature;BMP_pressure;BME280_temperature;BME280_humidity;BME280_pressure;Samples;Min_cycle;Max_cycle;Signal;HPM_P1;HPM_P2
2021/08/21 00:00:52;;;;;;;;;8.33;8.33;;;;;;;;5163880;27;45241;-74
2021/08/21 00:03:17;;;;;;;;;6.67;6.67;;;;;;;;5166176;27;45510;-74
2021/08/21 00:05:42;;;;;;;;;6.00;6.00;;;;;;;;5166181;27;45895;-74
2021/08/21 00:08:08;;;;;;;;;6.67;6.67;;;;;;;;5166070;27;45283;-74
2021/08/21 00:10:33;;;;;;;;;7.67;6.00;;;;;;;;5166319;27;45422;-74
2021/08/21 00:12:59;;;;;;;;;10.00;8.00;;;;;;;;5165959;27;45296;-75
2021/08/21 00:15:24;;;;;;;;;7.33;7.33;;;;;;;;5165695;27;45913;-74
2021/08/21 00:17:50;;;;;;;;;7.00;7.00;;;;;;;;5165970;27;45273;-75
2021/08/21 00:20:15;;;;;;;;;8.67;7.67;;;;;;;;5147574;27;45299;-75
2021/08/21 00:22:41;;;;;;;;;6.33;6.33;;;;;;;;5186801;27;45443;-75
2021/08/21 00:25:07;;;;;;;;;7.67;7.67;;;;;;;;5167728;27;47245;-75
2021/08/21 00:27:32;;;;;;;;;10.00;9.00;;;;;;;;5167926;27;45262;-75
2021/08/21 00:29:58;;;;;;;;;8.00;8.00;;;;;;;;5180866;27;45263;-75
2021/08/21 00:32:23;;;;;;;;;7.00;7.00;;;;;;;;5146764;27;47111;-74
2021/08/21 00:34:49;;;;;;;;;7.00;7.00;;;;;;;;5165775;27;45307;-74
2021/08/21 00:37:14;;;;;;;;;8.33;8.33;;;;;;;;5165363;27;45200;-74
2021/08/21 00:39:39;;;;;;;;;7.33;7.00;;;;;;;;5165858;27;45250;-75
2021/08/21 00:42:05;;;;;;;;;7.67;7.67;;;;;;;;5146357;27;45285;-75
2021/08/21 00:44:31;;;;;;;;;10.00;9.67;;;;;;;;5146169;27;47558;-75
2021/08/21 00:47:05;;;;;;;;;7.67;7.00;;;;;;;;5165519;27;45284;-74
2021/08/21 00:49:31;;;;;;;;;7.33;7.33;;;;;;;;5165779;27;45218;-75
2021/08/21 00:51:56;;;;;;;;;7.00;7.00;;;;;;;;5165304;27;45206;-75
2021/08/21 00:54:22;;;;;;;;;8.00;6.67;;;;;;;;5146253;27;47928;-75
2021/08/21 00:56:48;;;;;;;;;7.33;7.33;;;;;;;;5146464;27;45522;-75
2021/08/21 00:59:14;;;;;;;;;7.67;6.33;;;;;;;;5146360;27;45373;-74
2021/08/21 01:01:39;;;;;;;;;7.00;7.00;;;;;;;;5146138;27;45692;-74
2021/08/21 01:04:05;;;;;;;;;9.00;8.00;;;;;;;;5146236;27;47280;-75
2021/08/21 01:06:30;;;;;;;;;6.67;6.67;;;;;;;;5165031;27;45458;-74
2021/08/21 01:08:56;;;;;;;;;8.00;8.00;;;;;;;;5165354;27;45451;-74
2021/08/21 01:11:21;;;;;;;;;7.67;7.67;;;;;;;;5165038;27;45511;-75
2021/08/21 01:13:46;;;;;;;;;5.33;5.33;;;;;;;;5144837;27;46641;-75
2021/08/21 01:16:12;;;;;;;;;6.33;6.33;;;;;;;;5165220;27;45321;-74
2021/08/21 01:18:38;;;;;;;;;8.67;8.67;;;;;;;;5165150;27;45289;-75
2021/08/21 01:21:04;;;;;;;;;6.00;6.00;;;;;;;;5142199;27;45807;-74
2021/08/21 01:23:29;;;;;;;;;5.67;5.67;;;;;;;;5143828;27;45207;-74
2021/08/21 01:25:54;;;;;;;;;5.67;5.67;;;;;;;;5143939;27;45148;-74
2021/08/21 01:28:20;;;;;;;;;7.00;7.00;;;;;;;;5144002;27;45217;-74
2021/08/21 01:30:45;;;;;;;;;8.00;7.00;;;;;;;;5133138;27;45842;-75
2021/08/21 01:33:10;;;;;;;;;8.33;8.33;;;;;;;;5125020;27;47147;-74
2021/08/21 01:35:36;;;;;;;;;7.00;7.00;;;;;;;;5125163;27;45261;-74
2021/08/21 01:38:01;;;;;;;;;9.00;8.67;;;;;;;;5143566;27;45168;-74
2021/08/21 01:40:26;;;;;;;;;7.00;6.67;;;;;;;;5124830;27;45510;-75
2021/08/21 01:42:52;;;;;;;;;4.67;4.67;;;;;;;;5143531;27;45444;-74
2021/08/21 01:45:17;;;;;;;;;7.33;7.33;;;;;;;;5124625;27;45269;-74
2021/08/21 01:47:46;;;;;;;;;6.33;6.00;;;;;;;;5143719;27;45422;-75
2021/08/21 01:50:17;;;;;;;;;5.00;5.00;;;;;;;;5124834;27;46398;-75
2021/08/21 01:52:43;;;;;;;;;8.67;6.67;;;;;;;;5124421;27;47667;-74
2021/08/21 01:55:08;;;;;;;;;6.00;6.00;;;;;;;;5143329;27;45324;-74
2021/08/21 01:57:37;;;;;;;;;7.00;6.33;;;;;;;;5124821;27;45361;-74
2021/08/21 02:00:03;;;;;;;;;7.00;7.00;;;;;;;;5124488;27;47350;-74
2021/08/21 02:02:28;;;;;;;;;7.67;7.67;;;;;;;;5143077;27;46094;-74
2021/08/21 02:04:53;;;;;;;;;5.00;5.00;;;;;;;;5124502;27;45305;-74
2021/08/21 02:07:19;;;;;;;;;6.00;6.00;;;;;;;;5143297;27;45298;-74
2021/08/21 02:09:44;;;;;;;;;9.00;9.00;;;;;;;;5143144;27;45482;-74
2021/08/21 02:12:10;;;;;;;;;7.67;7.67;;;;;;;;5143216;27;45340;-74
2021/08/21 02:14:35;;;;;;;;;7.33;7.33;;;;;;;;5142940;27;45221;-74
2021/08/21 02:17:02;;;;;;;;;6.00;5.67;;;;;;;;5143243;27;45150;-74
2021/08/21 02:19:27;;;;;;;;;4.67;4.67;;;;;;;;5143153;27;45210;-74
2021/08/21 02:21:54;;;;;;;;;7.00;7.00;;;;;;;;5157155;27;46237;-75
2021/08/21 02:24:24;;;;;;;;;6.00;6.00;;;;;;;;5163704;27;45327;-74
2021/08/21 02:26:50;;;;;;;;;6.00;6.00;;;;;;;;5164006;27;45201;-74
2021/08/21 02:29:15;;;;;;;;;5.67;5.67;;;;;;;;5144655;27;45630;-75
2021/08/21 02:31:41;;;;;;;;;5.00;5.00;;;;;;;;5144599;27;47600;-74
2021/08/21 02:34:06;;;;;;;;;5.33;5.33;;;;;;;;5163786;27;45205;-74
2021/08/21 02:36:33;;;;;;;;;6.00;6.00;;;;;;;;5163665;27;45222;-74
2021/08/21 02:38:58;;;;;;;;;9.00;8.00;;;;;;;;5144816;27;47193;-74
2021/08/21 02:41:24;;;;;;;;;6.00;6.00;;;;;;;;5163246;27;45272;-75
2021/08/21 02:43:49;;;;;;;;;3.33;3.33;;;;;;;;5163392;27;45381;-76
2021/08/21 02:46:15;;;;;;;;;7.00;7.00;;;;;;;;5164017;27;45339;-74
2021/08/21 02:48:41;;;;;;;;;6.00;6.00;;;;;;;;5163507;27;45331;-74
2021/08/21 02:51:06;;;;;;;;;6.67;6.67;;;;;;;;5163322;27;45698;-74
2021/08/21 02:53:31;;;;;;;;;6.00;6.00;;;;;;;;5163492;27;45299;-74
2021/08/21 02:55:57;;;;;;;;;9.67;7.33;;;;;;;;5144598;27;45766;-75
2021/08/21 02:58:22;;;;;;;;;8.33;8.33;;;;;;;;5144311;27;45707;-74
2021/08/21 03:00:48;;;;;;;;;6.33;6.33;;;;;;;;5163386;27;45588;-74
2021/08/21 03:03:13;;;;;;;;;7.33;7.33;;;;;;;;5163179;27;45160;-75
2021/08/21 03:05:38;;;;;;;;;6.00;6.00;;;;;;;;5144447;27;45418;-75
2021/08/21 03:08:04;;;;;;;;;4.00;4.00;;;;;;;;5163154;27;45467;-74
2021/08/21 03:10:29;;;;;;;;;7.33;7.33;;;;;;;;5163210;27;46361;-74
2021/08/21 03:12:55;;;;;;;;;6.67;6.67;;;;;;;;5163182;27;45179;-75
2021/08/21 03:15:20;;;;;;;;;6.00;6.00;;;;;;;;5163093;27;45181;-75
2021/08/21 03:17:45;;;;;;;;;5.33;4.67;;;;;;;;5144144;27;46759;-74
2021/08/21 03:20:11;;;;;;;;;5.00;5.00;;;;;;;;5144234;27;47610;-74
2021/08/21 03:22:37;;;;;;;;;7.67;7.67;;;;;;;;5162985;27;45334;-74
2021/08/21 03:25:02;;;;;;;;;3.00;2.67;;;;;;;;5144264;27;45392;-74
2021/08/21 03:27:28;;;;;;;;;7.33;7.33;;;;;;;;5143985;27;46325;-74
2021/08/21 03:29:53;;;;;;;;;7.33;7.00;;;;;;;;5143654;27;47119;-74
2021/08/21 03:32:18;;;;;;;;;7.00;7.00;;;;;;;;5143892;27;45306;-74
2021/08/21 03:34:44;;;;;;;;;8.33;6.67;;;;;;;;5143893;27;45291;-74
2021/08/21 03:37:10;;;;;;;;;8.00;8.00;;;;;;;;5143168;27;45671;-74
2021/08/21 03:39:36;;;;;;;;;6.00;6.00;;;;;;;;5162565;27;45885;-75
2021/08/21 03:42:01;;;;;;;;;6.67;6.67;;;;;;;;5162402;27;45373;-75
2021/08/21 03:44:27;;;;;;;;;7.00;7.00;;;;;;;;5143919;27;45334;-74
2021/08/21 03:46:52;;;;;;;;;9.67;9.00;;;;;;;;5162768;27;45270;-74
2021/08/21 03:49:17;;;;;;;;;6.00;6.00;;;;;;;;5162581;27;45981;-75
2021/08/21 03:51:43;;;;;;;;;9.00;8.33;;;;;;;;5162508;27;45214;-75
2021/08/21 03:54:08;;;;;;;;;6.67;6.67;;;;;;;;5162798;27;45224;-74
2021/08/21 03:56:34;;;;;;;;;7.00;7.00;;;;;;;;5162566;27;45227;-75
2021/08/21 03:58:59;;;;;;;;;5.00;5.00;;;;;;;;5143356;27;47026;-74
2021/08/21 04:01:24;;;;;;;;;8.67;8.67;;;;;;;;5143633;27;45392;-75
2021/08/21 04:03:50;;;;;;;;;7.00;7.00;;;;;;;;5162562;27;45249;-75
2021/08/21 04:06:15;;;;;;;;;8.67;8.00;;;;;;;;5143397;27;45985;-74
2021/08/21 04:08:40;;;;;;;;;9.00;9.00;;;;;;;;5162260;27;45907;-75
2021/08/21 04:11:06;;;;;;;;;8.33;8.33;;;;;;;;5143468;27;45279;-74
2021/08/21 04:13:31;;;;;;;;;7.00;7.00;;;;;;;;5162237;27;45455;-75
2021/08/21 04:15:56;;;;;;;;;7.33;7.33;;;;;;;;5162328;27;45506;-74
2021/08/21 04:18:22;;;;;;;;;6.00;6.00;;;;;;;;5162267;27;45183;-75
2021/08/21 04:20:47;;;;;;;;;7.67;7.00;;;;;;;;5162008;27;45248;-75
2021/08/21 04:23:12;;;;;;;;;9.67;8.33;;;;;;;;5162246;27;45481;-74
2021/08/21 04:25:38;;;;;;;;;9.00;9.00;;;;;;;;5162330;27;45247;-75
2021/08/21 04:28:03;;;;;;;;;9.33;8.33;;;;;;;;5143206;27;47350;-75
2021/08/21 04:30:29;;;;;;;;;6.00;6.00;;;;;;;;5161791;27;45466;-74
2021/08/21 04:32:54;;;;;;;;;7.67;7.33;;;;;;;;5162154;27;45564;-75
2021/08/21 04:35:19;;;;;;;;;10.00;9.00;;;;;;;;5162180;27;45308;-74
2021/08/21 04:37:45;;;;;;;;;9.33;9.33;;;;;;;;5161696;27;45337;-74
2021/08/21 04:40:10;;;;;;;;;7.00;7.00;;;;;;;;5142908;27;45282;-74
2021/08/21 04:42:36;;;;;;;;;8.67;7.67;;;;;;;;5162128;27;45316;-74
2021/08/21 04:45:02;;;;;;;;;9.00;9.00;;;;;;;;5161711;27;45524;-74
2021/08/21 04:47:27;;;;;;;;;6.67;6.67;;;;;;;;5163833;27;45292;-74
2021/08/21 04:49:53;;;;;;;;;8.00;8.00;;;;;;;;5146347;27;45353;-75
2021/08/21 04:52:18;;;;;;;;;9.67;9.67;;;;;;;;5165399;27;45168;-76
2021/08/21 04:54:44;;;;;;;;;7.67;7.33;;;;;;;;5165401;27;45237;-76
2021/08/21 04:57:09;;;;;;;;;8.00;8.00;;;;;;;;5165061;27;45315;-77
2021/08/21 04:59:34;;;;;;;;;10.67;10.67;;;;;;;;5165067;27;45351;-77
2021/08/21 05:02:00;;;;;;;;;11.00;9.00;;;;;;;;5165414;27;45360;-74
2021/08/21 05:04:25;;;;;;;;;7.33;7.33;;;;;;;;5146162;27;46121;-74
2021/08/21 05:06:50;;;;;;;;;8.00;8.00;;;;;;;;5146120;27;47158;-74
2021/08/21 05:09:15;;;;;;;;;6.67;6.00;;;;;;;;5165239;27;45186;-74
2021/08/21 05:11:41;;;;;;;;;8.00;8.00;;;;;;;;5150683;27;45441;-76
2021/08/21 05:14:06;;;;;;;;;10.33;9.33;;;;;;;;5149952;27;45408;-76
2021/08/21 05:16:31;;;;;;;;;7.67;7.67;;;;;;;;5132074;27;46810;-76
2021/08/21 05:19:04;;;;;;;;;8.33;6.67;;;;;;;;5151406;27;45599;-76
2021/08/21 05:21:36;;;;;;;;;8.67;8.67;;;;;;;;5145260;27;45350;-77
2021/08/21 05:24:01;;;;;;;;;9.00;8.00;;;;;;;;5127397;27;46807;-74
2021/08/21 05:26:27;;;;;;;;;11.00;11.00;;;;;;;;5128808;27;47256;-74
2021/08/21 05:28:52;;;;;;;;;7.33;7.33;;;;;;;;5144500;27;45437;-74
2021/08/21 05:31:17;;;;;;;;;7.33;7.33;;;;;;;;5151095;27;45415;-73
2021/08/21 05:33:43;;;;;;;;;8.00;8.00;;;;;;;;5136370;27;45969;-73
2021/08/21 05:36:08;;;;;;;;;8.33;8.33;;;;;;;;5134096;27;47553;-73
2021/08/21 05:38:34;;;;;;;;;8.67;8.67;;;;;;;;5154731;27;45269;-74
2021/08/21 05:41:00;;;;;;;;;9.00;8.67;;;;;;;;5153266;27;45492;-74
2021/08/21 05:43:25;;;;;;;;;10.00;10.00;;;;;;;;5136266;27;46034;-73
2021/08/21 05:45:50;;;;;;;;;10.33;9.00;;;;;;;;5147836;27;45338;-74
2021/08/21 05:48:16;;;;;;;;;10.00;10.00;;;;;;;;5141181;27;45296;-74
2021/08/21 05:50:41;;;;;;;;;9.00;7.67;;;;;;;;5136088;27;45244;-74
2021/08/21 05:53:07;;;;;;;;;8.67;8.67;;;;;;;;5141709;27;45248;-72
2021/08/21 05:55:32;;;;;;;;;8.67;8.00;;;;;;;;5153042;27;46397;-72
2021/08/21 05:57:57;;;;;;;;;9.00;9.00;;;;;;;;5132855;27;45307;-73
2021/08/21 06:00:24;;;;;;;;;9.33;9.33;;;;;;;;5134663;27;45540;-74
2021/08/21 06:02:50;;;;;;;;;9.33;8.00;;;;;;;;5130579;27;45893;-74
2021/08/21 06:05:15;;;;;;;;;14.00;10.00;;;;;;;;5161183;27;45522;-78
2021/08/21 06:07:40;;;;;;;;;9.33;9.33;;;;;;;;5133736;27;45348;-77
2021/08/21 06:10:06;;;;;;;;;11.33;10.00;;;;;;;;5139690;27;45620;-78
2021/08/21 06:12:32;;;;;;;;;13.00;10.00;;;;;;;;5130672;27;45990;-78
2021/08/21 06:14:57;;;;;;;;;8.00;8.00;;;;;;;;5141104;27;46984;-78
2021/08/21 06:17:22;;;;;;;;;9.00;9.00;;;;;;;;5156257;27;45432;-75
2021/08/21 06:19:48;;;;;;;;;15.33;15.33;;;;;;;;5134698;27;45296;-74
2021/08/21 06:22:13;;;;;;;;;14.00;13.00;;;;;;;;5133511;27;45795;-75
2021/08/21 06:24:41;;;;;;;;;11.33;11.00;;;;;;;;5130312;27;47833;-75
2021/08/21 06:27:07;;;;;;;;;11.00;11.00;;;;;;;;5132858;27;45390;-75
2021/08/21 06:29:39;;;;;;;;;8.00;8.00;;;;;;;;5129657;27;45380;-77
2021/08/21 06:32:05;;;;;;;;;7.00;7.00;;;;;;;;5125079;27;45927;-75
2021/08/21 06:34:31;;;;;;;;;13.67;11.33;;;;;;;;5132259;27;46417;-74
2021/08/21 06:37:00;;;;;;;;;9.00;8.00;;;;;;;;5135930;27;45334;-74
2021/08/21 06:39:25;;;;;;;;;12.00;10.33;;;;;;;;5153421;27;45375;-75
2021/08/21 06:41:51;;;;;;;;;9.00;9.00;;;;;;;;5144812;27;46376;-76
2021/08/21 06:44:16;;;;;;;;;13.33;12.67;;;;;;;;5148057;27;45430;-77
2021/08/21 06:46:44;;;;;;;;;10.67;10.67;;;;;;;;5129984;27;45383;-76
2021/08/21 06:49:10;;;;;;;;;9.33;9.33;;;;;;;;5136222;27;45544;-74
2021/08/21 06:51:35;;;;;;;;;10.00;10.00;;;;;;;;5132633;27;47060;-75
2021/08/21 06:54:06;;;;;;;;;13.00;12.67;;;;;;;;5129125;27;45858;-78
2021/08/21 06:56:31;;;;;;;;;10.00;10.00;;;;;;;;5134507;27;45305;-78
2021/08/21 06:58:57;;;;;;;;;8.67;8.67;;;;;;;;5129135;27;45498;-77
2021/08/21 07:01:27;;;;;;;;;10.00;10.00;;;;;;;;5128488;27;45476;-77
2021/08/21 07:03:52;;;;;;;;;9.00;9.00;;;;;;;;5136090;27;45708;-75
2021/08/21 07:06:18;;;;;;;;;11.00;9.00;;;;;;;;5152334;27;45479;-75
2021/08/21 07:08:43;;;;;;;;;10.00;9.33;;;;;;;;5145029;27;45319;-75
2021/08/21 07:11:09;;;;;;;;;10.33;10.33;;;;;;;;5137178;27;45411;-74
2021/08/21 07:13:34;;;;;;;;;9.33;9.33;;;;;;;;5140381;27;45529;-75
2021/08/21 07:16:00;;;;;;;;;9.33;9.33;;;;;;;;5139356;27;45343;-77
2021/08/21 07:18:25;;;;;;;;;9.00;9.00;;;;;;;;5134695;27;45977;-78
2021/08/21 07:20:51;;;;;;;;;7.67;7.33;;;;;;;;5139754;27;46444;-78
2021/08/21 07:23:16;;;;;;;;;9.67;9.67;;;;;;;;5140462;27;47424;-78
2021/08/21 07:25:42;;;;;;;;;9.67;9.67;;;;;;;;5140330;27;45325;-77
2021/08/21 07:28:08;;;;;;;;;10.00;8.33;;;;;;;;5139487;27;45366;-76
2021/08/21 07:30:33;;;;;;;;;10.67;10.00;;;;;;;;5131552;27;47157;-73
2021/08/21 07:33:02;;;;;;;;;8.00;8.00;;;;;;;;5151610;27;46087;-74
2021/08/21 07:35:27;;;;;;;;;8.00;8.00;;;;;;;;5150747;27;45620;-73
2021/08/21 07:37:53;;;;;;;;;8.33;8.33;;;;;;;;5136568;27;45631;-74
2021/08/21 07:40:18;;;;;;;;;12.00;11.67;;;;;;;;5159220;27;45445;-73
2021/08/21 07:42:43;;;;;;;;;7.67;7.00;;;;;;;;5144716;27;45531;-74
2021/08/21 07:45:09;;;;;;;;;10.33;10.33;;;;;;;;5130182;27;45336;-74
2021/08/21 07:47:37;;;;;;;;;6.33;6.33;;;;;;;;5133813;27;45399;-74
2021/08/21 07:50:02;;;;;;;;;8.67;8.33;;;;;;;;5140649;27;46054;-75
2021/08/21 07:52:31;;;;;;;;;8.67;8.67;;;;;;;;5139546;27;50284;-77
2021/08/21 07:54:57;;;;;;;;;8.67;8.67;;;;;;;;5142262;27;45376;-77
2021/08/21 07:57:22;;;;;;;;;6.67;6.67;;;;;;;;5134256;27;45691;-77
2021/08/21 07:59:48;;;;;;;;;8.00;8.00;;;;;;;;5136645;27;45506;-78
2021/08/21 08:02:15;;;;;;;;;8.33;8.33;;;;;;;;5128698;27;46186;-77
2021/08/21 08:04:41;;;;;;;;;8.67;8.67;;;;;;;;5133519;27;45423;-75
2021/08/21 08:07:06;;;;;;;;;9.00;7.67;;;;;;;;5140531;27;45444;-75
2021/08/21 08:09:31;;;;;;;;;8.00;8.00;;;;;;;;5157343;27;45458;-79
2021/08/21 08:11:57;;;;;;;;;8.00;8.00;;;;;;;;5145147;27;46006;-76
2021/08/21 08:14:22;;;;;;;;;7.33;7.33;;;;;;;;5155710;27;45426;-75
2021/08/21 08:16:48;;;;;;;;;7.00;6.00;;;;;;;;5133053;27;45550;-74
2021/08/21 08:19:41;;;;;;;;;8.00;8.00;;;;;;;;5134819;27;46029;-75
2021/08/21 08:22:11;;;;;;;;;10.00;8.33;;;;;;;;5148776;27;45648;-76
2021/08/21 08:24:40;;;;;;;;;8.33;8.33;;;;;;;;5145049;27;45554;-76
2021/08/21 08:27:05;;;;;;;;;8.67;8.67;;;;;;;;5144993;27;45680;-75
2021/08/21 08:29:33;;;;;;;;;8.67;8.67;;;;;;;;5144406;27;45380;-76
2021/08/21 08:31:59;;;;;;;;;6.67;6.67;;;;;;;;5143316;27;45360;-76
2021/08/21 08:34:55;;;;;;;;;8.00;8.00;;;;;;;;5129463;27;45240;-75
2021/08/21 08:37:32;;;;;;;;;8.67;8.67;;;;;;;;5140484;27;45473;-76
2021/08/21 08:40:22;;;;;;;;;;;;;;;;;;;;;
2021/08/21 08:43:04;;;;;;;;;6.00;6.00;;;;;;;;5154569;27;75056;-75
2021/08/21 08:45:29;;;;;;;;;8.33;8.33;;;;;;;;5136953;27;45375;-76
2021/08/21 08:48:08;;;;;;;;;8.67;8.00;;;;;;;;5139838;27;45534;-76
2021/08/21 08:50:34;;;;;;;;;7.67;7.67;;;;;;;;5135162;27;45324;-76
2021/08/21 08:53:11;;;;;;;;;7.33;7.33;;;;;;;;5157014;27;45427;-75
2021/08/21 08:55:43;;;;;;;;;7.00;7.00;;;;;;;;5138448;27;45445;-76
2021/08/21 09:00:57;;;;;;;;;11.67;10.00;;;;;;;;5154769;27;45228;-76
2021/08/21 09:03:24;;;;;;;;;8.33;8.33;;;;;;;;5139924;27;47045;-76
2021/08/21 09:05:49;;;;;;;;;6.67;6.67;;;;;;;;5158706;27;45324;-76
2021/08/21 09:08:23;;;;;;;;;8.00;8.00;;;;;;;;5136315;27;45423;-76
2021/08/21 09:10:49;;;;;;;;;9.00;9.00;;;;;;;;5139776;27;45451;-76
2021/08/21 09:13:15;;;;;;;;;8.00;8.00;;;;;;;;5151053;27;46025;-75
2021/08/21 09:15:42;;;;;;;;;8.67;8.00;;;;;;;;5151238;27;45310;-76
2021/08/21 09:18:08;;;;;;;;;10.00;10.00;;;;;;;;5134820;27;45330;-75
2021/08/21 09:20:34;;;;;;;;;8.00;8.00;;;;;;;;5142702;27;45534;-76
2021/08/21 09:23:15;;;;;;;;;7.67;7.67;;;;;;;;5154579;27;45651;-76
2021/08/21 09:25:40;;;;;;;;;9.00;8.00;;;;;;;;5150108;27;45312;-75
2021/08/21 09:28:16;;;;;;;;;8.33;8.33;;;;;;;;5128651;27;45551;-75
2021/08/21 09:30:41;;;;;;;;;7.00;7.00;;;;;;;;5160808;27;45480;-76
2021/08/21 09:33:07;;;;;;;;;8.00;8.00;;;;;;;;5134548;27;46159;-76
2021/08/21 09:35:33;;;;;;;;;8.67;7.33;;;;;;;;5155248;27;45278;-76
2021/08/21 09:37:59;;;;;;;;;8.00;8.00;;;;;;;;5143779;27;45480;-76
2021/08/21 09:40:29;;;;;;;;;8.00;8.00;;;;;;;;5153268;27;45499;-75
2021/08/21 09:42:54;;;;;;;;;7.33;7.33;;;;;;;;5145774;27;46283;-76
2021/08/21 09:45:20;;;;;;;;;8.67;8.00;;;;;;;;5135569;27;45364;-76
2021/08/21 09:47:45;;;;;;;;;10.00;9.67;;;;;;;;5150181;27;45324;-77
2021/08/21 09:50:13;;;;;;;;;7.67;7.67;;;;;;;;5153194;27;45531;-76
2021/08/21 09:52:38;;;;;;;;;8.00;8.00;;;;;;;;5144941;27;46163;-77
2021/08/21 09:55:08;;;;;;;;;10.33;8.67;;;;;;;;5154052;27;45397;-75
2021/08/21 09:57:34;;;;;;;;;9.00;9.00;;;;;;;;5152905;27;45355;-76
2021/08/21 10:00:01;;;;;;;;;8.67;8.67;;;;;;;;5146157;27;45522;-75
2021/08/21 10:02:29;;;;;;;;;9.00;8.33;;;;;;;;5150369;27;46169;-76
2021/08/21 10:04:55;;;;;;;;;9.00;9.00;;;;;;;;5152297;27;45292;-76
2021/08/21 10:07:24;;;;;;;;;8.00;8.00;;;;;;;;5146419;27;45211;-76
2021/08/21 10:09:52;;;;;;;;;8.33;7.67;;;;;;;;5160251;27;45735;-77
2021/08/21 10:12:20;;;;;;;;;6.33;6.33;;;;;;;;5152276;27;46162;-75
2021/08/21 10:14:47;;;;;;;;;6.00;5.00;;;;;;;;5139256;27;45281;-75
2021/08/21 10:17:21;;;;;;;;;8.00;8.00;;;;;;;;5141432;27;45525;-75
2021/08/21 10:19:47;;;;;;;;;10.33;10.33;;;;;;;;5143953;27;45269;-75
2021/08/21 10:22:13;;;;;;;;;11.00;10.00;;;;;;;;5155009;27;45660;-75
2021/08/21 10:24:40;;;;;;;;;10.00;9.00;;;;;;;;5157287;27;45395;-76
2021/08/21 10:27:08;;;;;;;;;9.00;8.00;;;;;;;;5151229;27;45444;-76
2021/08/21 10:29:34;;;;;;;;;8.33;8.33;;;;;;;;5148277;27;45534;-75
2021/08/21 10:31:59;;;;;;;;;9.67;8.67;;;;;;;;5155721;27;45236;-76
2021/08/21 10:34:24;;;;;;;;;8.67;8.67;;;;;;;;5151032;27;45298;-79
2021/08/21 10:36:50;;;;;;;;;10.00;9.00;;;;;;;;5147227;27;45347;-85
2021/08/21 10:39:20;;;;;;;;;8.67;8.67;;;;;;;;5141654;27;45288;-82
2021/08/21 10:41:46;;;;;;;;;9.67;9.67;;;;;;;;5142878;27;45445;-87
2021/08/21 10:44:31;;;;;;;;;6.67;6.67;;;;;;;;5150966;27;45475;-83
2021/08/21 10:46:57;;;;;;;;;9.67;9.67;;;;;;;;5154964;27;45491;-81
2021/08/21 10:49:42;;;;;;;;;7.33;7.33;;;;;;;;5153717;27;45369;-81
2021/08/21 10:52:27;;;;;;;;;9.33;7.67;;;;;;;;5142340;27;46862;-79
2021/08/21 10:54:52;;;;;;;;;8.33;8.33;;;;;;;;5154748;27;45445;-76
2021/08/21 10:57:25;;;;;;;;;11.33;10.67;;;;;;;;5139111;27;45313;-75
2021/08/21 10:59:51;;;;;;;;;8.00;8.00;;;;;;;;5133067;27;45458;-75
2021/08/21 11:02:29;;;;;;;;;7.00;7.00;;;;;;;;5142941;27;45459;-75
2021/08/21 11:04:54;;;;;;;;;8.33;8.33;;;;;;;;5145613;27;45195;-77
2021/08/21 11:07:44;;;;;;;;;7.33;7.33;;;;;;;;5133376;27;45364;-77
2021/08/21 11:10:30;;;;;;;;;8.00;8.00;;;;;;;;5129717;27;45606;-78
2021/08/21 11:12:55;;;;;;;;;9.67;9.67;;;;;;;;5124283;27;46851;-78
2021/08/21 11:15:32;;;;;;;;;9.67;9.67;;;;;;;;5149159;27;45513;-80
2021/08/21 11:17:58;;;;;;;;;8.00;8.00;;;;;;;;5135882;27;45447;-85
2021/08/21 11:20:23;;;;;;;;;9.00;8.00;;;;;;;;5132110;27;45266;-84
2021/08/21 11:23:07;;;;;;;;;6.00;6.00;;;;;;;;5145866;27;45632;-86
2021/08/21 11:25:40;;;;;;;;;7.00;7.00;;;;;;;;5137376;27;45340;-84
2021/08/21 11:28:07;;;;;;;;;8.33;8.33;;;;;;;;5126268;27;45389;-80
2021/08/21 11:31:03;;;;;;;;;8.33;8.33;;;;;;;;5147235;27;45617;-80
2021/08/21 11:33:29;;;;;;;;;9.67;8.67;;;;;;;;5137973;27;45467;-80
2021/08/21 11:35:55;;;;;;;;;8.00;7.67;;;;;;;;5133323;27;45246;-84
2021/08/21 11:38:23;;;;;;;;;6.00;6.00;;;;;;;;5142638;27;45285;-86
2021/08/21 11:40:50;;;;;;;;;8.67;8.67;;;;;;;;5143633;27;45435;-82
2021/08/21 11:43:16;;;;;;;;;6.33;6.33;;;;;;;;5145283;27;45368;-81
2021/08/21 11:45:43;;;;;;;;;9.33;8.00;;;;;;;;5150798;27;45542;-84
2021/08/21 11:48:09;;;;;;;;;7.00;6.67;;;;;;;;5154042;27;45563;-82
2021/08/21 11:50:42;;;;;;;;;7.00;6.00;;;;;;;;5141545;27;45466;-80
2021/08/21 11:53:13;;;;;;;;;7.67;7.67;;;;;;;;5148813;27;45580;-85
2021/08/21 11:55:39;;;;;;;;;9.67;9.33;;;;;;;;5124614;27;45336;-79
2021/08/21 11:58:05;;;;;;;;;7.00;7.00;;;;;;;;5136705;27;45368;-80
2021/08/21 12:00:32;;;;;;;;;9.67;8.33;;;;;;;;5154446;27;45707;-83
2021/08/21 12:03:00;;;;;;;;;9.00;8.33;;;;;;;;5165912;27;45362;-86
2021/08/21 12:05:25;;;;;;;;;7.67;7.00;;;;;;;;5146745;27;45467;-81
2021/08/21 12:07:50;;;;;;;;;9.33;9.33;;;;;;;;5146523;27;45416;-78
2021/08/21 12:10:15;;;;;;;;;9.67;9.67;;;;;;;;5146974;27;45602;-79
2021/08/21 12:12:41;;;;;;;;;6.67;6.67;;;;;;;;5146948;27;47535;-77
2021/08/21 12:15:07;;;;;;;;;6.67;6.67;;;;;;;;5165417;27;45273;-82
2021/08/21 12:17:34;;;;;;;;;7.00;7.00;;;;;;;;5146134;27;45362;-79
2021/08/21 12:20:02;;;;;;;;;8.00;8.00;;;;;;;;5164512;27;45372;-81
2021/08/21 12:22:29;;;;;;;;;9.00;8.00;;;;;;;;5164839;27;46530;-77
2021/08/21 12:24:55;;;;;;;;;7.33;6.33;;;;;;;;5164965;27;45375;-77
2021/08/21 12:27:22;;;;;;;;;9.00;7.33;;;;;;;;5165893;27;45394;-78
2021/08/21 12:29:47;;;;;;;;;9.67;9.67;;;;;;;;5146299;27;46130;-77
2021/08/21 12:32:26;;;;;;;;;8.00;8.00;;;;;;;;5146244;27;46736;-80
2021/08/21 12:35:07;;;;;;;;;8.67;8.00;;;;;;;;5145354;27;45334;-83
2021/08/21 12:37:32;;;;;;;;;7.00;7.00;;;;;;;;5164619;27;45343;-83
2021/08/21 12:40:12;;;;;;;;;8.33;7.67;;;;;;;;5158945;27;45399;-80
2021/08/21 12:42:37;;;;;;;;;8.00;8.00;;;;;;;;5162593;27;45641;-78
2021/08/21 12:45:22;;;;;;;;;7.33;7.33;;;;;;;;5145555;27;45484;-79
2021/08/21 12:47:47;;;;;;;;;8.00;8.00;;;;;;;;5161849;27;45488;-80
2021/08/21 12:50:13;;;;;;;;;8.33;8.33;;;;;;;;5147672;27;46033;-82
2021/08/21 12:52:40;;;;;;;;;8.33;8.33;;;;;;;;5164404;27;45238;-78
2021/08/21 12:55:06;;;;;;;;;9.00;9.00;;;;;;;;5165428;27;45542;-82
2021/08/21 12:57:35;;;;;;;;;11.00;10.67;;;;;;;;5164587;27;45347;-80
2021/08/21 13:00:02;;;;;;;;;8.67;8.00;;;;;;;;5163857;27;45350;-79
2021/08/21 13:02:38;;;;;;;;;8.33;8.33;;;;;;;;5144865;27;47176;-85
2021/08/21 13:05:04;;;;;;;;;7.00;7.00;;;;;;;;5164192;27;45455;-81
2021/08/21 13:07:41;;;;;;;;;10.33;9.00;;;;;;;;5163982;27;45229;-82
2021/08/21 13:10:07;;;;;;;;;10.00;10.00;;;;;;;;5163297;27;45693;-80
2021/08/21 13:12:32;;;;;;;;;8.33;6.67;;;;;;;;5145786;27;48449;-88
2021/08/21 13:14:57;;;;;;;;;9.67;9.33;;;;;;;;5165002;27;45265;-75
2021/08/21 13:17:23;;;;;;;;;8.00;8.00;;;;;;;;5166182;27;45197;-79
2021/08/21 13:19:48;;;;;;;;;7.67;7.67;;;;;;;;5164695;27;45374;-80
2021/08/21 13:22:14;;;;;;;;;8.67;8.67;;;;;;;;5145613;27;46830;-82
2021/08/21 13:24:39;;;;;;;;;10.00;9.00;;;;;;;;5145893;27;45401;-82
2021/08/21 13:27:05;;;;;;;;;10.00;9.00;;;;;;;;5145651;27;45362;-83
2021/08/21 13:29:30;;;;;;;;;8.00;8.00;;;;;;;;5145291;27;45961;-78
2021/08/21 13:31:56;;;;;;;;;8.67;8.67;;;;;;;;5145590;27;47024;-80
2021/08/21 13:34:21;;;;;;;;;10.00;10.00;;;;;;;;5164509;27;45350;-80
2021/08/21 13:36:48;;;;;;;;;8.33;8.33;;;;;;;;5144824;27;45423;-79
2021/08/21 13:39:13;;;;;;;;;6.00;6.00;;;;;;;;5144930;27;45889;-82
2021/08/21 13:41:39;;;;;;;;;9.67;9.00;;;;;;;;5163936;27;45237;-78
2021/08/21 13:44:05;;;;;;;;;10.00;10.00;;;;;;;;5145326;27;45361;-81
2021/08/21 13:46:30;;;;;;;;;10.00;8.33;;;;;;;;5145116;27;45502;-78
2021/08/21 13:48:56;;;;;;;;;10.67;9.33;;;;;;;;5144676;27;45544;-82
2021/08/21 13:51:22;;;;;;;;;9.33;9.33;;;;;;;;5144321;27;46278;-80
2021/08/21 13:53:47;;;;;;;;;11.00;11.00;;;;;;;;5145068;27;45340;-79
2021/08/21 13:56:18;;;;;;;;;12.67;11.67;;;;;;;;5164103;27;45371;-84
2021/08/21 13:58:43;;;;;;;;;12.00;12.00;;;;;;;;5161269;27;45441;-85
2021/08/21 14:01:10;;;;;;;;;10.33;10.33;;;;;;;;5163784;27;46075;-88
2021/08/21 14:03:35;;;;;;;;;8.00;8.00;;;;;;;;5163827;27;45152;-84
2021/08/21 14:06:01;;;;;;;;;12.00;12.00;;;;;;;;5163611;27;45524;-85
2021/08/21 14:08:26;;;;;;;;;10.00;10.00;;;;;;;;5163680;27;45522;-83
2021/08/21 14:10:51;;;;;;;;;11.00;10.00;;;;;;;;5144243;27;45669;-80
2021/08/21 14:13:17;;;;;;;;;9.00;9.00;;;;;;;;5163022;27;45303;-83
2021/08/21 14:15:42;;;;;;;;;6.33;6.00;;;;;;;;5146285;27;45261;-80
2021/08/21 14:18:07;;;;;;;;;9.00;7.33;;;;;;;;5163509;27;45333;-80
2021/08/21 14:20:35;;;;;;;;;8.67;8.67;;;;;;;;5163026;27;45272;-82
2021/08/21 14:23:00;;;;;;;;;9.00;9.00;;;;;;;;5164563;27;45369;-84
2021/08/21 14:25:25;;;;;;;;;8.67;8.67;;;;;;;;5164364;27;45516;-77
2021/08/21 14:27:51;;;;;;;;;8.67;8.00;;;;;;;;5163422;27;45433;-78
2021/08/21 14:30:16;;;;;;;;;11.33;11.33;;;;;;;;5161905;27;45416;-82
2021/08/21 14:32:42;;;;;;;;;8.67;8.67;;;;;;;;5164713;27;45308;-83
2021/08/21 14:35:07;;;;;;;;;11.00;11.00;;;;;;;;5167845;27;45319;-83
2021/08/21 14:37:33;;;;;;;;;9.33;8.67;;;;;;;;5162628;27;45609;-78
2021/08/21 14:39:58;;;;;;;;;9.00;8.33;;;;;;;;5143698;27;46167;-80
2021/08/21 14:42:32;;;;;;;;;6.67;6.67;;;;;;;;5143430;27;45364;-82